Time;durP1;ratioP1;P1;durP2;ratioP2;P2;SDS_P1;SDS_P2;PMS_P1;PMS_P2;Temp;Humidity;BMP_temperature;BMP_pressure;BME280_temperature;BME280_humidity;BME280_pressure;Samples;Min_cycle;Max_cycle;Signal;HPM_P1;HPM_P2
2021/10/28 00:13:43;;;;;;;45.63;19.23;;;;;;;9.76;86.00;96141.56;6126206;23;20186;-79
2021/10/28 00:16:14;;;;;;;31.50;17.60;;;;;;;9.75;86.52;96145.09;6126654;23;20700;-78
2021/10/28 00:18:44;;;;;;;25.07;18.97;;;;;;;9.66;87.74;96137.38;6127171;23;20187;-80
2021/10/28 00:21:14;;;;;;;22.27;18.20;;;;;;;9.70;87.71;96132.72;6125843;23;20664;-80
2021/10/28 00:23:47;;;;;;;26.47;18.63;;;;;;;9.66;88.42;96133.97;6126552;23;20179;-80
2021/10/28 00:26:14;;;;;;;23.43;19.40;;;;;;;9.66;88.18;96139.94;6125808;23;20191;-80
2021/10/28 00:28:41;;;;;;;45.23;20.63;;;;;;;9.56;89.23;96131.56;6126036;23;20183;-80
2021/10/28 00:31:08;;;;;;;29.67;20.10;;;;;;;9.63;89.02;96134.28;6126335;23;20210;-80
2021/10/28 00:33:35;;;;;;;28.37;19.37;;;;;;;9.64;88.88;96139.28;6125919;23;20195;-80
2021/10/28 00:36:04;;;;;;;23.40;18.83;;;;;;;9.73;88.28;96134.16;6126867;23;20176;-80
2021/10/28 00:38:33;;;;;;;24.73;18.57;;;;;;;9.82;87.88;96131.44;6127024;23;20176;-80
2021/10/28 00:41:01;;;;;;;27.00;19.13;;;;;;;9.76;87.56;96131.28;6126342;23;20274;-80
2021/10/28 00:43:29;;;;;;;21.93;18.20;;;;;;;9.76;87.09;96141.56;6126394;23;20164;-80
2021/10/28 00:45:55;;;;;;;24.20;17.60;;;;;;;9.83;86.23;96135.63;6126332;23;20176;-80
2021/10/28 00:48:22;;;;;;;19.50;17.40;;;;;;;9.88;85.66;96137.72;6124509;23;20187;-80
2021/10/28 00:50:51;;;;;;;19.60;17.60;;;;;;;9.84;85.43;96141.56;6126090;23;20195;-80
2021/10/28 00:53:18;;;;;;;18.70;16.70;;;;;;;9.84;85.78;96137.25;6126216;23;20171;-80
2021/10/28 00:55:46;;;;;;;22.23;17.53;;;;;;;9.70;85.91;96137.84;6125892;23;20230;-80
2021/10/28 00:58:16;;;;;;;19.20;16.67;;;;;;;9.74;86.20;96143.50;6125823;23;20183;-80
2021/10/28 01:00:43;;;;;;;18.13;16.23;;;;;;;9.82;85.65;96139.16;6126366;23;20291;-80
2021/10/28 01:03:09;;;;;;;19.27;16.17;;;;;;;9.87;84.77;96130.97;6126412;23;20183;-80
2021/10/28 01:05:36;;;;;;;18.53;16.07;;;;;;;9.84;84.42;96139.00;6126345;23;20234;-80
2021/10/28 01:08:04;;;;;;;18.67;16.30;;;;;;;9.74;84.74;96133.22;6125197;23;20653;-80
2021/10/28 01:10:31;;;;;;;17.20;15.40;;;;;;;9.72;84.82;96130.78;6125831;23;20288;-80
2021/10/28 01:12:59;;;;;;;17.77;15.83;;;;;;;9.57;85.48;96127.22;6125728;23;20175;-80
2021/10/28 01:15:25;;;;;;;19.63;15.83;;;;;;;9.55;86.20;96131.72;6126073;23;20204;-79
2021/10/28 01:17:52;;;;;;;19.00;15.57;;;;;;;9.53;85.74;96131.88;6126046;23;20186;-80
2021/10/28 01:20:19;;;;;;;18.63;15.60;;;;;;;9.58;85.63;96132.22;6125907;23;20221;-80
2021/10/28 01:22:46;;;;;;;18.37;15.43;;;;;;;9.65;85.08;96129.81;6125800;23;20183;-80
2021/10/28 01:25:13;;;;;;;18.37;16.13;;;;;;;9.61;85.02;96131.91;6126185;23;20655;-80
2021/10/28 01:27:39;;;;;;;18.07;15.67;;;;;;;9.63;85.12;96129.16;6124892;23;20244;-80
2021/10/28 01:30:07;;;;;;;18.97;16.20;;;;;;;9.64;85.29;96129.00;6126185;23;20207;-80
2021/10/28 01:32:34;;;;;;;16.83;14.90;;;;;;;9.62;84.78;96125.00;6125600;23;20184;-80
2021/10/28 01:35:00;;;;;;;19.63;16.30;;;;;;;9.57;84.97;96120.31;6125775;23;20200;-80
2021/10/28 01:37:28;;;;;;;18.07;16.13;;;;;;;9.65;84.84;96124.66;6125989;23;20179;-80
2021/10/28 01:39:54;;;;;;;18.50;14.80;;;;;;;9.76;84.10;96119.22;6126101;23;20921;-80
2021/10/28 01:42:21;;;;;;;15.53;13.80;;;;;;;9.87;83.67;96118.91;6125995;23;20183;-80
2021/10/28 01:44:47;;;;;;;17.77;15.30;;;;;;;9.77;83.75;96110.56;6125719;23;20176;-80
2021/10/28 01:47:16;;;;;;;18.03;16.13;;;;;;;9.65;84.55;96114.38;6126212;23;20235;-80
2021/10/28 01:49:43;;;;;;;16.73;15.03;;;;;;;9.65;84.93;96112.59;6125336;23;20215;-80
2021/10/28 01:52:12;;;;;;;16.03;14.43;;;;;;;9.74;84.39;96112.63;6126230;23;20194;-80
2021/10/28 01:54:40;;;;;;;15.90;14.17;;;;;;;9.77;82.65;96115.69;6127572;23;20195;-80
2021/10/28 01:57:16;;;;;;;14.90;13.40;;;;;;;9.85;81.92;96109.75;6127803;23;20228;-79
2021/10/28 01:59:42;;;;;;;16.20;14.37;;;;;;;9.75;81.60;96115.06;6127149;23;20204;-81
2021/10/28 02:02:09;;;;;;;15.57;14.00;;;;;;;9.65;82.09;96112.59;6128135;23;20182;-80
2021/10/28 02:04:35;;;;;;;15.40;13.83;;;;;;;9.66;82.56;96121.13;6127480;23;20176;-80
2021/10/28 02:07:02;;;;;;;16.03;14.33;;;;;;;9.68;82.29;96114.88;6127268;23;20521;-80
2021/10/28 02:09:28;;;;;;;16.03;14.33;;;;;;;9.61;82.28;96113.91;6127461;23;20199;-80
2021/10/28 02:11:56;;;;;;;16.47;14.77;;;;;;;9.62;82.69;96119.84;6127548;23;20569;-78
2021/10/28 02:14:23;;;;;;;16.00;14.40;;;;;;;9.56;83.44;96121.28;6127428;23;20646;-80
2021/10/28 02:16:49;;;;;;;16.60;14.60;;;;;;;9.63;83.23;96118.88;6127779;23;20657;-79
2021/10/28 02:19:16;;;;;;;15.87;14.33;;;;;;;9.68;82.92;96114.06;6127722;23;20207;-80
2021/10/28 02:21:44;;;;;;;16.80;15.10;;;;;;;9.70;82.74;96120.66;6127735;23;20183;-80
2021/10/28 02:24:11;;;;;;;15.30;13.80;;;;;;;9.81;81.90;96121.34;6127964;23;20198;-80
2021/10/28 02:26:37;;;;;;;15.13;13.43;;;;;;;9.79;81.30;96120.69;6127234;23;20238;-80
2021/10/28 02:29:05;;;;;;;14.77;13.23;;;;;;;9.81;81.06;96122.16;6127658;23;20176;-79
2021/10/28 02:31:32;;;;;;;14.43;12.67;;;;;;;9.82;79.90;96122.91;6127202;23;20194;-79
2021/10/28 02:33:58;;;;;;;14.30;12.40;;;;;;;9.76;80.09;96123.56;6127235;23;20164;-82
2021/10/28 02:36:25;;;;;;;14.10;12.60;;;;;;;9.74;79.69;96128.88;6126949;23;20180;-80
2021/10/28 02:38:51;;;;;;;14.13;12.60;;;;;;;9.72;79.56;96127.41;6127955;23;20175;-81
2021/10/28 02:41:18;;;;;;;13.53;12.23;;;;;;;9.78;80.12;96121.66;6127523;23;20238;-80
2021/10/28 02:43:44;;;;;;;14.47;12.70;;;;;;;9.66;79.95;96123.69;6127600;23;20183;-79
2021/10/28 02:46:12;;;;;;;14.93;13.33;;;;;;;9.48;81.73;96128.97;6127337;23;20179;-80
2021/10/28 02:48:38;;;;;;;14.30;12.83;;;;;;;9.49;82.07;96128.00;6126274;23;20215;-80
2021/10/28 02:51:05;;;;;;;15.40;13.80;;;;;;;9.58;81.70;96137.34;6126993;23;20210;-80
2021/10/28 02:53:31;;;;;;;14.40;13.00;;;;;;;9.69;80.54;96128.53;6126633;23;20180;-80
2021/10/28 02:55:58;;;;;;;15.00;13.40;;;;;;;9.68;80.54;96132.06;6127014;23;20195;-80
2021/10/28 02:58:24;;;;;;;15.90;13.87;;;;;;;9.77;80.47;96138.03;6126729;23;20175;-80
2021/10/28 03:00:51;;;;;;;14.80;13.30;;;;;;;9.83;79.84;96127.91;6127920;23;20204;-81
2021/10/28 03:03:19;;;;;;;15.57;13.97;;;;;;;9.87;79.53;96124.06;6127610;23;20172;-81
2021/10/28 03:05:45;;;;;;;15.00;13.40;;;;;;;9.85;79.34;96126.00;6127187;23;20175;-80
2021/10/28 03:08:12;;;;;;;15.30;13.80;;;;;;;9.80;79.38;96122.31;6128122;23;20234;-81
2021/10/28 03:10:39;;;;;;;15.00;13.50;;;;;;;9.77;79.34;96131.13;6127759;23;20203;-80
2021/10/28 03:13:05;;;;;;;14.77;13.27;;;;;;;9.72;79.70;96130.78;6127182;23;20183;-80
2021/10/28 03:15:35;;;;;;;15.43;13.83;;;;;;;9.71;80.24;96136.91;6126852;23;20199;-80
2021/10/28 03:19:03;;;;;;;16.17;14.47;;;;;;;9.66;80.66;96126.28;6127374;23;20199;-80
2021/10/28 03:26:27;;;;;;;16.37;14.60;;;;;;;9.74;81.90;96122.94;6126886;23;20180;-79
2021/10/28 03:28:54;;;;;;;17.73;15.33;;;;;;;9.70;81.89;96118.09;6126491;23;20176;-80
2021/10/28 03:31:20;;;;;;;18.03;15.60;;;;;;;9.79;81.79;96125.84;6126555;23;20190;-81
2021/10/28 03:33:49;;;;;;;17.37;14.50;;;;;;;9.84;81.34;96131.28;6126994;23;20198;-79
2021/10/28 03:36:25;;;;;;;18.10;14.80;;;;;;;9.89;81.48;96123.91;6126498;23;20203;-80
2021/10/28 03:39:00;;;;;;;17.50;15.10;;;;;;;9.91;81.21;96125.38;6126783;23;20163;-80
2021/10/28 03:41:55;;;;;;;16.53;14.77;;;;;;;9.87;81.51;96126.63;6125751;23;20160;-80
2021/10/28 03:45:05;;;;;;;16.03;14.33;;;;;;;9.86;81.41;96130.16;6126435;23;20219;-79
2021/10/28 03:48:01;;;;;;;16.23;14.53;;;;;;;9.85;81.86;96136.28;6125743;23;20175;-80
2021/10/28 03:51:01;;;;;;;18.13;15.50;;;;;;;9.78;82.76;96137.09;6126038;23;20211;-81
2021/10/28 03:59:09;;;;;;;16.40;14.30;;;;;;;9.78;82.18;96139.66;6097553;23;20565;-81
2021/10/28 04:02:15;;;;;;;15.43;13.83;;;;;;;9.72;81.65;96138.50;6129197;23;20171;-82
2021/10/28 04:18:41;;;;;;;15.03;13.53;;;;;;;9.57;80.92;96143.47;6125772;23;20188;-80
2021/10/28 04:21:23;;;;;;;14.57;13.10;;;;;;;9.55;81.10;96144.56;6125825;23;20688;-80
2021/10/28 04:29:18;;;;;;;13.73;12.33;;;;;;;9.64;91.76;96149.56;6126595;23;20214;-80
2021/10/28 04:31:45;;;;;;;14.37;12.93;;;;;;;9.70;81.10;96138.66;6126092;23;20190;-80
2021/10/28 04:34:12;;;;;;;14.33;12.93;;;;;;;9.61;81.10;96137.03;6125989;23;20167;-77
2021/10/28 04:36:39;;;;;;;15.03;13.53;;;;;;;9.53;81.67;96137.00;6125910;23;20510;-80
2021/10/28 04:39:07;;;;;;;15.40;13.80;;;;;;;9.54;81.80;96135.25;6126313;23;20183;-80
2021/10/28 04:41:36;;;;;;;16.07;14.43;;;;;;;9.60;81.68;96142.34;6125347;23;20203;-80
2021/10/28 04:44:07;;;;;;;14.87;13.37;;;;;;;9.60;81.71;96134.63;6126361;23;20180;-81
2021/10/28 04:46:33;;;;;;;14.70;13.20;;;;;;;9.67;82.16;96133.03;6125432;23;20163;-81
2021/10/28 04:49:00;;;;;;;15.20;13.70;;;;;;;9.70;81.42;96130.13;6123163;23;20203;-82
2021/10/28 04:51:26;;;;;;;15.63;13.77;;;;;;;9.63;81.54;96122.25;6126107;23;20175;-81
2021/10/28 04:53:53;;;;;;;15.37;13.77;;;;;;;9.64;82.29;96128.19;6125353;23;20494;-81
2021/10/28 04:56:19;;;;;;;15.50;13.83;;;;;;;9.59;81.85;96131.25;6125194;23;20829;-81
2021/10/28 04:58:47;;;;;;;14.83;13.27;;;;;;;9.65;81.66;96122.91;6125167;23;20554;-82
2021/10/28 05:01:13;;;;;;;14.50;13.00;;;;;;;9.69;81.49;96131.91;6126202;23;20195;-81
2021/10/28 05:03:40;;;;;;;15.47;13.87;;;;;;;9.64;82.40;96128.19;6125760;23;20199;-80
2021/10/28 05:06:07;;;;;;;16.23;14.53;;;;;;;9.60;82.28;96132.06;6126258;23;20172;-81
2021/10/28 05:08:34;;;;;;;44.97;38.57;;;;;;;9.64;82.03;96128.19;6126010;23;20664;-81
2021/10/28 05:11:00;;;;;;;19.10;17.10;;;;;;;9.63;82.53;96129.97;6125506;23;20214;-80
2021/10/28 05:13:27;;;;;;;15.50;13.90;;;;;;;9.63;82.47;96131.72;6125357;23;20179;-80
2021/10/28 05:15:54;;;;;;;15.40;13.80;;;;;;;9.63;82.66;96127.38;6125890;23;20202;-81
2021/10/28 05:18:23;;;;;;;15.97;14.27;;;;;;;9.58;83.13;96121.94;6126032;23;20184;-80
2021/10/28 05:20:51;;;;;;;17.30;14.60;;;;;;;9.63;83.63;96126.59;6125815;23;20204;-81
2021/10/28 05:23:18;;;;;;;17.33;15.20;;;;;;;9.62;83.48;96122.44;6125593;23;20176;-81
2021/10/28 05:25:47;;;;;;;16.50;14.23;;;;;;;9.67;83.33;96128.69;6126203;23;20258;-81
2021/10/28 05:28:14;;;;;;;17.20;14.60;;;;;;;9.61;84.15;96123.38;6127216;23;20172;-80
2021/10/28 05:30:40;;;;;;;17.10;15.13;;;;;;;9.54;84.34;96127.53;6128506;23;20203;-80
2021/10/28 05:33:08;;;;;;;18.67;15.70;;;;;;;9.59;84.09;96126.13;6126795;23;20681;-81
2021/10/28 05:35:34;;;;;;;17.07;15.17;;;;;;;9.64;84.13;96126.44;6126903;23;20286;-80
2021/10/28 05:38:01;;;;;;;17.53;15.03;;;;;;;9.67;83.76;96135.59;6128346;23;20653;-81
2021/10/28 05:40:27;;;;;;;18.47;15.47;;;;;;;9.74;83.41;96133.22;6127293;23;20822;-80
2021/10/28 05:42:55;;;;;;;16.70;14.97;;;;;;;9.77;83.23;96132.91;6127081;23;20232;-79
2021/10/28 05:45:22;;;;;;;19.30;15.63;;;;;;;9.67;83.82;96128.69;6127904;23;20513;-81
2021/10/28 05:47:49;;;;;;;16.83;15.07;;;;;;;9.69;83.94;96129.34;6127854;23;20175;-80
2021/10/28 05:50:20;;;;;;;18.00;15.87;;;;;;;9.70;84.11;96130.94;6127053;23;20203;-80
2021/10/28 05:52:48;;;;;;;18.10;15.83;;;;;;;9.73;84.34;96126.47;6128126;23;20222;-81
2021/10/28 05:55:15;;;;;;;18.80;15.57;;;;;;;9.69;85.11;96128.53;6127885;23;20199;-81
2021/10/28 05:57:42;;;;;;;19.87;15.50;;;;;;;9.73;84.48;96131.59;6127364;23;20179;-81
2021/10/28 06:00:10;;;;;;;18.13;16.17;;;;;;;9.75;84.35;96133.06;6127646;23;20215;-80
2021/10/28 06:02:36;;;;;;;20.10;16.57;;;;;;;9.77;84.41;96138.84;6128458;23;20271;-79
2021/10/28 06:05:05;;;;;;;20.27;16.50;;;;;;;9.78;84.04;96130.16;6127177;23;20182;-80
2021/10/28 06:07:33;;;;;;;18.20;16.20;;;;;;;9.79;84.57;96134.34;6126469;23;20568;-80
2021/10/28 06:10:02;;;;;;;19.30;16.53;;;;;;;9.80;84.88;96130.81;6125137;23;20251;-81
2021/10/28 06:12:33;;;;;;;19.53;16.33;;;;;;;9.81;85.39;96134.19;6125591;23;20174;-82
2021/10/28 06:15:00;;;;;;;20.37;17.10;;;;;;;9.78;85.04;96137.88;6128073;23;20251;-82
2021/10/28 06:17:31;;;;;;;19.40;16.73;;;;;;;9.75;85.24;96134.81;6126605;23;20179;-81
2021/10/28 06:19:59;;;;;;;18.80;16.80;;;;;;;9.71;85.36;96136.91;6126481;23;20243;-82
2021/10/28 06:22:25;;;;;;;18.60;15.73;;;;;;;9.73;85.29;96134.97;6126617;23;20657;-82
2021/10/28 06:24:53;;;;;;;17.70;15.80;;;;;;;9.76;85.16;96134.66;6125660;23;20186;-81
2021/10/28 06:27:20;;;;;;;19.00;16.10;;;;;;;9.74;85.12;96139.16;6125774;23;20732;-82
2021/10/28 06:29:46;;;;;;;17.53;15.67;;;;;;;9.71;84.39;96131.75;6125807;23;20199;-81
2021/10/28 06:32:13;;;;;;;17.67;15.80;;;;;;;9.69;84.40;96138.81;6126429;23;20184;-82
2021/10/28 06:34:43;;;;;;;17.17;15.03;;;;;;;9.75;83.84;96140.78;6126254;23;20231;-82
2021/10/28 06:37:10;;;;;;;17.47;15.57;;;;;;;9.75;83.74;96143.34;6125597;23;20196;-82
2021/10/28 06:39:39;;;;;;;17.10;15.30;;;;;;;9.77;83.80;96140.63;6128120;23;20195;-83
2021/10/28 06:42:12;;;;;;;18.60;15.67;;;;;;;9.82;83.63;96140.91;6125787;23;20179;-83
2021/10/28 06:44:38;;;;;;;18.70;16.00;;;;;;;9.86;83.66;96137.06;6126389;23;20159;-83
2021/10/28 06:47:05;;;;;;;17.77;14.90;;;;;;;9.89;83.20;96149.63;6126440;23;20565;-83
2021/10/28 06:49:34;;;;;;;19.50;16.77;;;;;;;9.90;83.07;96144.31;6110645;23;20215;-83
2021/10/28 06:52:01;;;;;;;19.53;16.67;;;;;;;9.94;82.95;96139.69;6125537;23;20179;-83
2021/10/28 06:54:31;;;;;;;18.80;16.77;;;;;;;9.88;83.23;96146.25;6126472;23;20210;-83
2021/10/28 07:02:43;;;;;;;16.63;14.93;;;;;;;9.79;82.88;96147.22;6064980;23;20182;-83
2021/10/28 07:05:11;;;;;;;17.23;15.33;;;;;;;9.80;82.73;96148.81;6112294;23;20179;-81
2021/10/28 07:07:38;;;;;;;18.00;14.13;;;;;;;9.83;82.29;96145.91;6126902;23;20180;-82
2021/10/28 07:10:09;;;;;;;15.37;13.70;;;;;;;9.89;81.96;96153.00;6127060;23;20221;-80
2021/10/28 07:12:46;;;;;;;15.50;13.90;;;;;;;9.91;81.05;96147.72;6127124;23;20734;-83
2021/10/28 07:15:18;;;;;;;15.23;13.63;;;;;;;9.84;81.89;96147.53;6126674;23;20171;-83
2021/10/28 07:20:46;;;;;;;16.13;14.27;;;;;;;9.92;81.79;96146.75;6123386;23;20668;-82
2021/10/28 07:23:56;;;;;;;15.47;13.87;;;;;;;9.89;81.82;96141.91;6127099;23;20159;-82
2021/10/28 07:26:44;;;;;;;15.97;14.37;;;;;;;9.84;81.94;96144.94;6127175;23;20171;-83
2021/10/28 07:35:06;;;;;;;19.47;14.57;;;;;;;9.91;81.43;96132.28;6126459;23;20222;-82
2021/10/28 08:00:01;;;;;;;14.93;13.30;;;;;;;9.67;84.75;96136.41;6075431;23;20735;-83
2021/10/28 08:19:26;;;;;;;16.07;13.60;;;;;;;9.84;80.58;96115.84;6112139;23;20215;-83
2021/10/28 08:21:55;;;;;;;14.60;13.20;;;;;;;9.69;81.57;96118.25;6126068;23;20170;-82
2021/10/28 08:29:58;;;;;;;15.77;14.17;;;;;;;9.45;83.53;96113.84;6125239;23;20219;-82
2021/10/28 08:32:24;;;;;;;16.37;13.63;;;;;;;9.49;82.61;96109.19;6125947;23;20226;-82
2021/10/28 08:34:53;;;;;;;15.77;14.17;;;;;;;9.57;82.18;96115.19;6125832;23;20198;-83
2021/10/28 08:37:22;;;;;;;14.93;13.43;;;;;;;9.69;81.39;96110.53;6125201;23;20244;-83
2021/10/28 08:39:52;;;;;;;15.77;13.90;;;;;;;9.83;81.16;96106.53;6126381;23;20202;-82
2021/10/28 08:42:21;;;;;;;14.03;12.63;;;;;;;9.88;80.51;96101.72;6125884;23;20152;-81
2021/10/28 08:44:49;;;;;;;14.47;13.07;;;;;;;9.98;80.11;96100.63;6125772;23;20542;-82
2021/10/28 08:47:17;;;;;;;14.00;12.67;;;;;;;9.99;79.97;96098.84;6125447;23;20171;-83
2021/10/28 08:49:46;;;;;;;15.27;13.67;;;;;;;10.10;79.78;96097.72;6124259;23;20215;-82
2021/10/28 08:52:35;;;;;;;14.97;13.43;;;;;;;10.17;78.77;96099.50;6124967;23;20176;-82
2021/10/28 08:55:14;;;;;;;14.87;12.77;;;;;;;10.25;78.49;96086.66;6125811;23;20646;-81
2021/10/28 08:58:07;;;;;;;14.37;12.87;;;;;;;10.30;78.04;96083.59;6125281;23;20781;-82
2021/10/28 09:25:33;;;;;;;12.37;10.40;;;;;;;11.42;71.75;96083.41;6127397;23;20163;-83
2021/10/28 09:28:05;;;;;;;12.23;10.33;;;;;;;11.70;70.57;96076.00;6129424;23;20613;-80
2021/10/28 09:30:44;;;;;;;9.93;9.03;;;;;;;11.94;68.44;96070.69;6127698;23;20231;-83
2021/10/28 09:33:15;;;;;;;10.33;9.23;;;;;;;12.06;69.32;96066.75;6128372;23;20187;-81
2021/10/28 09:44:20;;;;;;;10.73;9.70;;;;;;;12.07;67.77;96057.22;6127776;23;20501;-83
2021/10/28 09:46:47;;;;;;;10.63;9.47;;;;;;;12.20;67.92;96054.84;6127829;23;20489;-83
2021/10/28 09:52:04;;;;;;;14.80;10.03;;;;;;;12.24;67.81;96050.94;6127156;23;20479;-82
2021/10/28 09:54:38;;;;;;;10.57;9.67;;;;;;;12.29;67.80;96047.84;6126753;23;20164;-81
2021/10/28 09:59:53;;;;;;;10.53;9.37;;;;;;;12.34;66.02;96048.91;6126643;23;20278;-82
2021/10/28 10:02:26;;;;;;;10.43;9.40;;;;;;;12.41;65.99;96043.84;6126793;23;20569;-83
2021/10/28 10:04:55;;;;;;;10.27;9.37;;;;;;;12.63;66.07;96039.59;6126758;23;20168;-82
2021/10/28 10:07:21;;;;;;;10.43;9.30;;;;;;;12.62;64.86;96043.16;6126132;23;20688;-82
2021/10/28 10:09:49;;;;;;;9.97;9.00;;;;;;;12.65;65.84;96048.78;6127206;23;20670;-82
2021/10/28 10:12:23;;;;;;;9.63;8.57;;;;;;;12.77;65.09;96046.53;6127950;23;20179;-83
2021/10/28 10:14:51;;;;;;;8.80;8.00;;;;;;;12.97;64.85;96039.84;6126415;23;20163;-82
2021/10/28 10:17:18;;;;;;;9.10;8.30;;;;;;;13.07;63.09;96042.16;6127144;23;20195;-81
2021/10/28 10:19:50;;;;;;;9.63;8.83;;;;;;;13.16;62.91;96037.72;6127068;23;20554;-81
2021/10/28 10:22:22;;;;;;;9.73;8.83;;;;;;;13.26;62.36;96030.47;6127150;23;20206;-82
2021/10/28 10:24:59;;;;;;;9.07;8.33;;;;;;;13.16;62.61;96033.34;6127275;23;20184;-82
2021/10/28 11:28:13;;;;;;;9.30;8.40;;;;;;;14.66;58.66;95964.09;6124859;23;20235;-82
2021/10/28 11:31:09;;;;;;;8.80;7.90;;;;;;;14.77;58.90;95959.19;6126687;23;20212;-82
2021/10/28 12:01:22;;;;;;;9.37;8.43;;;;;;;14.79;57.26;95959.00;6126351;23;20230;-83
2021/10/28 12:23:56;;;;;;;13.35;10.50;;;;;;;16.44;53.49;95907.19;6127511;23;20644;-83
2021/10/28 12:43:40;;;;;;;11.45;10.25;;;;;;;16.83;52.24;95888.88;6127103;23;20175;-81
2021/10/28 12:46:20;;;;;;;12.30;10.77;;;;;;;16.79;51.06;95882.47;6126829;23;20164;-82
2021/10/28 12:55:07;;;;;;;13.18;10.68;;;;;;;16.99;51.89;95868.56;6097314;23;20211;-81
2021/10/28 13:49:58;;;;;;;14.50;10.68;;;;;;;18.26;49.47;95835.06;6128680;23;20245;-84
2021/10/28 13:52:46;;;;;;;13.45;10.90;;;;;;;18.29;49.11;95833.81;6130252;23;20643;-83
2021/10/28 14:14:39;;;;;;;15.07;10.57;;;;;;;18.44;49.46;95830.84;5133742;27;20565;-83
2021/10/28 14:15:30;;;;;;;15.82;11.52;;;;;;;18.10;50.42;95827.81;5135178;28;20477;-83
2021/10/28 14:21:07;;;;;;;12.88;11.23;;;;;;;18.04;50.95;95827.91;5134505;27;20699;-83
2021/10/28 14:23:43;;;;;;;13.63;12.27;;;;;;;18.09;50.94;95828.81;5120467;27;20191;-84
2021/10/28 14:26:52;;;;;;;13.85;11.65;;;;;;;17.92;51.21;95831.22;5112700;28;20250;-83
2021/10/28 14:32:41;;;;;;;13.10;11.90;;;;;;;17.38;52.75;95829.28;5113172;28;20207;-83
2021/10/28 14:38:13;;;;;;;11.95;10.70;;;;;;;17.18;53.45;95818.22;5089258;28;20263;-82
2021/10/28 15:03:03;;;;;;;12.05;10.15;;;;;;;16.50;56.14;95810.22;5065607;28;20196;-82
2021/10/28 15:27:58;;;;;;;11.55;10.30;;;;;;;15.91;59.17;95792.25;5056542;28;20723;-83
2021/10/28 15:30:34;;;;;;;47.97;42.22;;;;;;;15.91;59.72;95790.44;5057215;28;20221;-83
2021/10/28 15:35:59;;;;;;;17.13;14.88;;;;;;;15.69;60.66;95789.09;5014138;28;20214;-83
2021/10/28 16:22:56;;;;;;;18.67;16.67;;;;;;;13.58;71.48;95778.25;5042264;28;20251;-82
2021/10/28 16:25:22;;;;;;;15.40;12.93;;;;;;;13.45;72.53;95776.41;5055428;28;20202;-83
2021/10/28 16:27:49;;;;;;;14.27;12.83;;;;;;;13.37;71.95;95779.13;5054714;28;20212;-82
2021/10/28 16:30:17;;;;;;;14.30;13.00;;;;;;;13.23;73.42;95778.25;5055619;28;20221;-84
2021/10/28 16:32:44;;;;;;;14.27;12.33;;;;;;;13.16;73.95;95781.75;5056666;28;20206;-81
2021/10/28 16:35:14;;;;;;;14.93;13.33;;;;;;;13.11;74.39;95784.84;5055618;28;20216;-83
2021/10/28 16:37:40;;;;;;;14.27;12.93;;;;;;;13.05;75.05;95783.03;5056164;28;20205;-83
2021/10/28 16:40:09;;;;;;;14.37;12.87;;;;;;;12.93;76.26;95787.09;5054986;28;20225;-83
2021/10/28 16:42:35;;;;;;;14.53;13.07;;;;;;;12.82;76.33;95787.59;5056121;28;20233;-83
2021/10/28 16:45:04;;;;;;;13.40;12.20;;;;;;;12.75;77.99;95785.75;5056056;28;20296;-83
2021/10/28 16:47:32;;;;;;;12.83;11.53;;;;;;;12.77;77.97;95783.78;5055132;28;20237;-82
2021/10/28 16:49:58;;;;;;;40.27;35.93;;;;;;;12.69;78.29;95785.72;5069674;28;20607;-83
2021/10/28 16:52:25;;;;;;;14.27;12.77;;;;;;;12.60;78.66;95787.59;5074851;28;20204;-83
2021/10/28 16:54:51;;;;;;;15.13;13.73;;;;;;;12.62;78.83;95790.00;5074659;28;20204;-83
2021/10/28 16:57:18;;;;;;;14.43;13.03;;;;;;;12.56;78.80;95785.56;5067628;28;20206;-81
2021/10/28 16:59:44;;;;;;;14.33;13.03;;;;;;;12.40;79.65;95796.91;5053775;28;20229;-82
2021/10/28 17:02:11;;;;;;;15.13;13.63;;;;;;;12.44;79.05;95795.56;5054633;28;20209;-83
2021/10/28 17:04:39;;;;;;;14.20;12.90;;;;;;;12.36;80.09;95793.09;5054831;28;20209;-82
2021/10/28 17:07:05;;;;;;;14.63;13.23;;;;;;;12.26;80.67;95800.34;5054493;28;20672;-82
2021/10/28 17:09:32;;;;;;;13.97;12.57;;;;;;;12.19;81.25;95800.25;5054228;28;20680;-82
2021/10/28 17:11:59;;;;;;;14.50;13.10;;;;;;;12.22;80.16;95797.31;5054575;28;20211;-81
2021/10/28 17:14:25;;;;;;;14.07;12.77;;;;;;;12.13;81.80;95798.38;5054150;28;20201;-82
2021/10/28 17:16:52;;;;;;;14.43;13.03;;;;;;;12.12;81.23;95803.75;5054274;28;20666;-82
2021/10/28 17:19:19;;;;;;;14.53;13.13;;;;;;;12.04;81.55;95807.22;5053626;28;20221;-82
2021/10/28 17:21:48;;;;;;;15.73;13.33;;;;;;;12.03;81.00;95809.00;5054369;28;20201;-82
2021/10/28 17:24:24;;;;;;;14.63;13.13;;;;;;;12.03;81.33;95811.59;5053978;28;20228;-82
2021/10/28 17:26:51;;;;;;;16.80;15.20;;;;;;;11.96;81.76;95808.13;5053544;28;20205;-84
2021/10/28 17:29:17;;;;;;;15.30;13.87;;;;;;;11.97;81.41;95807.13;5053681;28;20201;-81
2021/10/28 17:31:44;;;;;;;14.90;13.50;;;;;;;12.00;81.96;95806.78;5054097;28;20197;-82
2021/10/28 17:34:11;;;;;;;14.33;12.93;;;;;;;11.95;81.81;95810.88;5053383;28;20202;-81
2021/10/28 17:36:37;;;;;;;14.90;13.40;;;;;;;11.90;81.47;95808.03;5053624;28;20205;-82
2021/10/28 17:39:06;;;;;;;14.57;13.10;;;;;;;11.90;82.67;95800.31;5053293;28;20208;-80
2021/10/28 17:41:33;;;;;;;15.47;14.07;;;;;;;11.95;81.67;95810.88;5053332;28;20213;-82
2021/10/28 17:44:00;;;;;;;17.57;15.80;;;;;;;11.94;80.97;95812.66;5052861;28;20722;-82
2021/10/28 17:46:27;;;;;;;17.23;15.53;;;;;;;11.90;81.19;95808.03;5053122;28;20211;-81
2021/10/28 17:48:55;;;;;;;16.27;14.67;;;;;;;11.93;81.23;95807.69;5053016;28;20235;-82
2021/10/28 17:51:36;;;;;;;16.10;14.60;;;;;;;11.95;80.62;95810.88;5053866;28;20224;-82
2021/10/28 17:54:29;;;;;;;16.17;13.97;;;;;;;11.93;80.74;95810.28;5053588;28;20631;-80
2021/10/28 17:56:58;;;;;;;15.30;13.80;;;;;;;11.88;80.81;95810.81;4951882;29;20205;-82
2021/10/28 17:59:28;;;;;;;17.20;14.57;;;;;;;11.73;81.29;95807.41;4952133;29;20217;-82
2021/10/28 18:02:05;;;;;;;17.67;14.47;;;;;;;11.69;81.59;95817.28;4959396;28;20207;-82
2021/10/28 18:04:35;;;;;;;16.57;14.77;;;;;;;11.56;82.29;95817.06;4970156;28;20239;-81
2021/10/28 18:07:01;;;;;;;18.50;16.60;;;;;;;11.53;82.06;95814.88;5044761;28;20255;-80
2021/10/28 18:12:12;;;;;;;17.10;15.50;;;;;;;11.50;82.75;95806.66;5060669;28;20205;-81
2021/10/28 18:14:41;;;;;;;19.03;17.13;;;;;;;11.34;82.66;95812.78;5063932;28;20196;-82
2021/10/28 18:17:19;;;;;;;18.27;16.43;;;;;;;11.42;81.88;95815.28;5072776;28;20201;-82
2021/10/28 18:19:46;;;;;;;17.33;15.13;;;;;;;11.47;81.42;95807.81;5054785;28;20220;-81
2021/10/28 18:22:18;;;;;;;16.93;15.33;;;;;;;11.34;81.27;95810.22;5055053;28;20201;-82
2021/10/28 18:24:48;;;;;;;17.67;15.87;;;;;;;11.23;82.40;95803.69;5072923;28;20197;-81
2021/10/28 18:27:18;;;;;;;16.67;15.13;;;;;;;11.29;81.91;95802.19;5064101;28;20232;-81
2021/10/28 18:29:56;;;;;;;18.33;16.10;;;;;;;11.34;81.19;95805.06;5052115;28;20657;-82
2021/10/28 18:32:28;;;;;;;16.57;14.73;;;;;;;11.22;81.52;95798.69;5052545;28;20367;-82
2021/10/28 18:34:56;;;;;;;16.57;14.97;;;;;;;11.26;81.20;95802.53;5052158;28;20254;-82
2021/10/28 18:37:41;;;;;;;17.13;15.43;;;;;;;11.08;81.73;95805.44;5052176;28;20202;-82
2021/10/28 18:43:03;;;;;;;21.47;16.97;;;;;;;11.04;81.17;95799.03;5049809;28;20247;-82
2021/10/28 18:45:30;;;;;;;18.53;16.63;;;;;;;10.97;80.94;95801.47;5052434;28;20622;-80
2021/10/28 18:48:18;;;;;;;18.70;16.80;;;;;;;10.88;81.55;95788.84;5056175;28;20216;-81
2021/10/28 18:50:44;;;;;;;18.40;16.50;;;;;;;10.77;81.80;95797.81;5052440;28;20233;-81
2021/10/28 18:53:14;;;;;;;18.53;16.57;;;;;;;10.94;80.64;95790.75;5056292;28;20224;-80
2021/10/28 18:58:43;;;;;;;17.77;15.97;;;;;;;11.04;77.73;95788.72;5065573;28;20576;-80
2021/10/28 19:01:12;;;;;;;17.90;16.00;;;;;;;10.90;77.31;95790.28;5065498;28;20222;-82
2021/10/28 19:03:40;;;;;;;17.83;16.10;;;;;;;10.85;76.67;95784.84;5070652;28;20216;-81
2021/10/28 19:06:10;;;;;;;18.07;16.17;;;;;;;10.83;76.56;95791.94;5076279;28;20196;-82
2021/10/28 19:08:40;;;;;;;19.90;16.00;;;;;;;10.77;75.92;95792.66;5056392;28;20204;-82